createdAt,value
2018-09-15T00:00:42.704Z,995.11
2018-09-15T00:01:42.673Z,995.13
2018-09-15T00:02:42.660Z,995.12
2018-09-15T00:03:42.659Z,995.15
2018-09-15T00:04:42.663Z,995.17
2018-09-15T00:05:42.707Z,995.17
2018-09-15T00:06:42.663Z,995.18
2018-09-15T00:07:42.670Z,995.19
2018-09-15T00:08:42.665Z,995.17
2018-09-15T00:09:42.666Z,995.18
2018-09-15T00:10:42.667Z,995.17
2018-09-15T00:11:42.671Z,995.17
2018-09-15T00:12:42.673Z,995.15
2018-09-15T00:13:42.676Z,995.2
2018-09-15T00:14:42.668Z,995.22
2018-09-15T00:15:42.685Z,995.26
2018-09-15T00:16:42.682Z,995.24
2018-09-15T00:17:42.678Z,995.25
2018-09-15T00:18:42.684Z,995.24
2018-09-15T00:19:42.675Z,995.23
2018-09-15T00:20:42.741Z,995.21
2018-09-15T00:21:42.684Z,995.24
2018-09-15T00:22:42.688Z,995.24
2018-09-15T00:23:42.688Z,995.25
2018-09-15T00:24:42.684Z,995.26
2018-09-15T00:25:42.688Z,995.24
2018-09-15T00:26:42.686Z,995.25
2018-09-15T00:27:42.691Z,995.26
2018-09-15T00:28:42.704Z,995.3
2018-09-15T00:29:42.702Z,995.27
2018-09-15T00:30:42.694Z,995.3
2018-09-15T00:31:42.700Z,995.25
2018-09-15T00:32:42.690Z,995.25
2018-09-15T00:33:42.690Z,995.3
2018-09-15T00:34:42.699Z,995.26
2018-09-15T00:35:42.729Z,995.27
2018-09-15T00:36:42.693Z,995.28
2018-09-15T00:37:42.689Z,995.28
2018-09-15T00:38:42.695Z,995.35
2018-09-15T00:39:42.693Z,995.34
2018-09-15T00:40:42.693Z,995.32
2018-09-15T00:41:42.705Z,995.32
2018-09-15T00:42:42.699Z,995.31
2018-09-15T00:43:42.699Z,995.33
2018-09-15T00:44:42.695Z,995.36
2018-09-15T00:45:42.695Z,995.33
2018-09-15T00:46:42.696Z,995.32
2018-09-15T00:47:42.704Z,995.34
2018-09-15T00:48:42.702Z,995.34
2018-09-15T00:49:42.701Z,995.4
2018-09-15T00:50:42.735Z,995.38
2018-09-15T00:51:42.700Z,995.35
2018-09-15T00:52:42.701Z,995.42
2018-09-15T00:53:42.699Z,995.4
2018-09-15T00:54:42.702Z,995.41
2018-09-15T00:55:42.790Z,995.38
2018-09-15T00:56:42.705Z,995.37
2018-09-15T00:57:42.719Z,995.42
2018-09-15T00:58:42.703Z,995.41
2018-09-15T00:59:42.705Z,995.44
2018-09-15T01:00:42.708Z,995.46
2018-09-15T01:01:42.709Z,995.48
2018-09-15T01:02:42.709Z,995.47
2018-09-15T01:03:42.710Z,995.5
2018-09-15T01:04:42.709Z,995.49
2018-09-15T01:05:42.716Z,995.51
2018-09-15T01:06:42.712Z,995.53
2018-09-15T01:07:42.710Z,995.49
2018-09-15T01:08:42.719Z,995.53
2018-09-15T01:09:42.710Z,995.52
2018-09-15T01:10:42.710Z,995.5
2018-09-15T01:11:42.724Z,995.54
2018-09-15T01:12:42.715Z,995.52
2018-09-15T01:13:42.712Z,995.51
2018-09-15T01:14:42.716Z,995.5
2018-09-15T01:15:42.747Z,995.53
2018-09-15T01:16:42.716Z,995.51
2018-09-15T01:17:42.714Z,995.5
2018-09-15T01:18:42.717Z,995.51
2018-09-15T01:19:42.721Z,995.46
2018-09-15T01:20:42.801Z,995.45
2018-09-15T01:21:42.715Z,995.45
2018-09-15T01:22:42.725Z,995.45
2018-09-15T01:23:42.720Z,995.49
2018-09-15T01:24:42.719Z,995.47
2018-09-15T01:25:42.727Z,995.44
2018-09-15T01:26:42.725Z,995.48
2018-09-15T01:27:42.745Z,995.43
2018-09-15T01:28:42.721Z,995.46
2018-09-15T01:29:42.721Z,995.43
2018-09-15T01:30:42.723Z,995.42
2018-09-15T01:31:42.725Z,995.41
2018-09-15T01:32:42.743Z,995.46
2018-09-15T01:33:42.725Z,995.44
2018-09-15T01:34:42.725Z,995.46
2018-09-15T01:35:42.808Z,995.51
2018-09-15T01:36:42.726Z,995.45
2018-09-15T01:37:42.729Z,995.47
2018-09-15T01:38:42.730Z,995.48
2018-09-15T01:39:42.734Z,995.47
2018-09-15T01:40:42.768Z,995.5
2018-09-15T01:41:42.731Z,995.5
2018-09-15T01:42:42.732Z,995.51
2018-09-15T01:43:42.735Z,995.52
2018-09-15T01:44:42.733Z,995.52
2018-09-15T01:45:42.766Z,995.51
2018-09-15T01:46:42.734Z,995.51
2018-09-15T01:47:42.733Z,995.51
2018-09-15T01:48:42.733Z,995.57
2018-09-15T01:49:42.731Z,995.58
2018-09-15T01:50:42.735Z,995.56
2018-09-15T01:51:42.739Z,995.56
2018-09-15T01:52:42.738Z,995.57
2018-09-15T01:53:42.737Z,995.59
2018-09-15T01:54:42.737Z,995.6
2018-09-15T01:55:42.787Z,995.58
2018-09-15T01:56:42.742Z,995.58
2018-09-15T01:57:42.809Z,995.6
2018-09-15T01:58:42.740Z,995.61
2018-09-15T01:59:42.738Z,995.6
2018-09-15T02:00:42.741Z,995.61
2018-09-15T02:01:42.737Z,995.62
2018-09-15T02:02:42.737Z,995.6
2018-09-15T02:03:42.740Z,995.67
2018-09-15T02:04:42.740Z,995.72
2018-09-15T02:05:42.834Z,995.68
2018-09-15T02:06:42.739Z,995.68
2018-09-15T02:07:42.742Z,995.69
2018-09-15T02:08:42.741Z,995.69
2018-09-15T02:09:42.743Z,995.71
2018-09-15T02:10:42.742Z,995.76
2018-09-15T02:11:42.740Z,995.76
2018-09-15T02:12:42.742Z,995.69
2018-09-15T02:13:42.743Z,995.7
2018-09-15T02:14:42.743Z,995.64
2018-09-15T02:15:42.743Z,995.68
2018-09-15T02:16:42.763Z,995.64
2018-09-15T02:17:42.748Z,995.64
2018-09-15T02:18:42.750Z,995.68
2018-09-15T02:19:42.745Z,995.69
2018-09-15T02:20:42.745Z,995.72
2018-09-15T02:21:42.751Z,995.72
2018-09-15T02:22:42.864Z,995.7
2018-09-15T02:23:42.746Z,995.73
2018-09-15T02:24:42.746Z,995.75
2018-09-15T02:25:42.748Z,995.73
2018-09-15T02:26:42.748Z,995.73
2018-09-15T02:27:42.749Z,995.71
2018-09-15T02:28:42.753Z,995.69
2018-09-15T02:29:42.748Z,995.69
2018-09-15T02:30:42.750Z,995.64
2018-09-15T02:31:42.751Z,995.68
2018-09-15T02:32:42.753Z,995.66
2018-09-15T02:33:42.749Z,995.65
2018-09-15T02:34:42.755Z,995.66
2018-09-15T02:35:42.751Z,995.7
2018-09-15T02:36:42.762Z,995.71
2018-09-15T02:37:42.752Z,995.72
2018-09-15T02:38:42.751Z,995.72
2018-09-15T02:39:42.753Z,995.75
2018-09-15T02:40:42.755Z,995.77
2018-09-15T02:41:42.753Z,995.79
2018-09-15T02:42:42.759Z,995.81
2018-09-15T02:43:42.754Z,995.78
2018-09-15T02:44:42.754Z,995.8
2018-09-15T02:45:42.800Z,995.83
2018-09-15T02:46:42.755Z,995.8
2018-09-15T02:47:42.755Z,995.8
2018-09-15T02:48:42.760Z,995.79
2018-09-15T02:49:42.754Z,995.78
2018-09-15T02:50:42.756Z,995.8
2018-09-15T02:51:42.755Z,995.76
2018-09-15T02:52:42.777Z,995.83
2018-09-15T02:53:42.754Z,995.81
2018-09-15T02:54:42.830Z,995.82
2018-09-15T02:55:42.839Z,995.79
2018-09-15T02:56:42.755Z,995.81
2018-09-15T02:57:42.760Z,995.79
2018-09-15T02:58:42.759Z,995.79
2018-09-15T02:59:42.755Z,995.8
2018-09-15T03:00:42.755Z,995.79
2018-09-15T03:01:42.759Z,995.77
2018-09-15T03:02:42.756Z,995.8
2018-09-15T03:03:42.754Z,995.84
2018-09-15T03:04:42.757Z,995.86
2018-09-15T03:05:42.862Z,995.85
2018-09-15T03:06:42.756Z,995.88
2018-09-15T03:07:42.760Z,995.85
2018-09-15T03:08:42.759Z,995.84
2018-09-15T03:09:42.761Z,995.88
2018-09-15T03:10:42.833Z,995.86
2018-09-15T03:11:42.757Z,995.93
2018-09-15T03:12:42.757Z,995.89
2018-09-15T03:13:42.760Z,995.94
2018-09-15T03:14:42.758Z,995.91
2018-09-15T03:15:42.765Z,995.91
2018-09-15T03:16:42.764Z,995.95
2018-09-15T03:17:43.210Z,995.96
2018-09-15T03:18:42.761Z,995.99
2018-09-15T03:19:42.761Z,995.96
2018-09-15T03:20:42.823Z,996
2018-09-15T03:21:42.768Z,996.03
2018-09-15T03:22:42.766Z,996.01
2018-09-15T03:23:42.773Z,996.07
2018-09-15T03:24:42.764Z,996.05
2018-09-15T03:25:42.763Z,996.1
2018-09-15T03:26:42.765Z,996.11
2018-09-15T03:27:42.765Z,996.1
2018-09-15T03:28:42.766Z,996.12
2018-09-15T03:29:42.772Z,996.14
2018-09-15T03:30:42.783Z,996.15
2018-09-15T03:31:42.776Z,996.12
2018-09-15T03:32:42.768Z,996.16
2018-09-15T03:33:42.763Z,996.14
2018-09-15T03:34:42.769Z,996.17
2018-09-15T03:35:42.845Z,996.18
2018-09-15T03:36:42.766Z,996.18
2018-09-15T03:37:42.764Z,996.17
2018-09-15T03:38:42.775Z,996.18
2018-09-15T03:39:42.760Z,996.21
2018-09-15T03:40:42.760Z,996.21
2018-09-15T03:41:42.917Z,996.17
2018-09-15T03:42:42.759Z,996.16
2018-09-15T03:43:42.761Z,996.18
2018-09-15T03:44:42.761Z,996.2
2018-09-15T03:45:42.769Z,996.13
2018-09-15T03:46:42.763Z,996.16
2018-09-15T03:47:42.769Z,996.15
2018-09-15T03:48:42.763Z,996.16
2018-09-15T03:49:42.761Z,996.14
2018-09-15T03:50:42.759Z,996.12
2018-09-15T03:51:42.763Z,996.15
2018-09-15T03:52:42.764Z,996.15
2018-09-15T03:53:42.760Z,996.18
2018-09-15T03:54:42.767Z,996.12
2018-09-15T03:55:42.828Z,996.17
2018-09-15T03:56:42.762Z,996.16
2018-09-15T03:57:42.768Z,996.16
2018-09-15T03:58:42.764Z,996.16
2018-09-15T03:59:42.764Z,996.16
2018-09-15T04:00:42.886Z,996.18
2018-09-15T04:01:42.768Z,996.25
2018-09-15T04:02:42.760Z,996.27
2018-09-15T04:03:42.762Z,996.24
2018-09-15T04:04:42.762Z,996.29
2018-09-15T04:05:42.773Z,996.27
2018-09-15T04:06:42.760Z,996.27
2018-09-15T04:07:42.760Z,996.32
2018-09-15T04:08:42.760Z,996.35
2018-09-15T04:09:42.760Z,996.39
2018-09-15T04:10:42.781Z,996.36
2018-09-15T04:11:42.762Z,996.41
2018-09-15T04:12:42.765Z,996.41
2018-09-15T04:13:42.763Z,996.43
2018-09-15T04:14:42.762Z,996.41
2018-09-15T04:15:42.841Z,996.4
2018-09-15T04:16:42.761Z,996.45
2018-09-15T04:17:42.765Z,996.49
2018-09-15T04:18:42.760Z,996.49
2018-09-15T04:19:42.759Z,996.53
2018-09-15T04:20:42.771Z,996.52
2018-09-15T04:21:42.759Z,996.54
2018-09-15T04:22:42.759Z,996.54
2018-09-15T04:23:42.761Z,996.57
2018-09-15T04:24:42.758Z,996.62
2018-09-15T04:25:42.760Z,996.63
2018-09-15T04:26:42.761Z,996.62
2018-09-15T04:27:42.770Z,996.71
2018-09-15T04:28:42.760Z,996.7
2018-09-15T04:29:42.761Z,996.71
2018-09-15T04:30:42.838Z,996.69
2018-09-15T04:31:42.764Z,996.7
2018-09-15T04:32:42.765Z,996.75
2018-09-15T04:33:42.764Z,996.73
2018-09-15T04:34:42.770Z,996.74
2018-09-15T04:35:42.767Z,996.73
2018-09-15T04:36:42.768Z,996.75
2018-09-15T04:37:42.772Z,996.76
2018-09-15T04:38:42.757Z,996.79
2018-09-15T04:39:42.758Z,996.81
2018-09-15T04:40:42.807Z,996.81
2018-09-15T04:41:42.794Z,996.8
2018-09-15T04:42:42.762Z,996.82
2018-09-15T04:43:42.761Z,996.81
2018-09-15T04:44:42.757Z,996.85
2018-09-15T04:45:42.785Z,996.84
2018-09-15T04:46:42.756Z,996.85
2018-09-15T04:47:42.778Z,996.86
2018-09-15T04:48:42.758Z,996.92
2018-09-15T04:49:42.762Z,996.93
2018-09-15T04:50:42.836Z,996.95
2018-09-15T04:51:42.762Z,996.92
2018-09-15T04:52:42.844Z,996.97
2018-09-15T04:53:42.763Z,996.96
2018-09-15T04:54:42.771Z,996.99
2018-09-15T04:55:42.768Z,997.02
2018-09-15T04:56:42.761Z,997.05
2018-09-15T04:57:42.774Z,997.06
2018-09-15T04:58:42.886Z,997.11
2018-09-15T04:59:42.750Z,997.11
2018-09-15T05:00:42.816Z,997.11
2018-09-15T05:01:42.765Z,997.1
2018-09-15T05:02:42.752Z,997.13
2018-09-15T05:03:42.752Z,997.14
2018-09-15T05:04:42.748Z,997.1
2018-09-15T05:05:42.827Z,997.1
2018-09-15T05:06:42.804Z,997.12
2018-09-15T05:07:42.748Z,997.15
2018-09-15T05:08:42.768Z,997.15
2018-09-15T05:09:42.757Z,997.16
2018-09-15T05:10:42.769Z,997.11
2018-09-15T05:11:42.749Z,997.16
2018-09-15T05:12:42.808Z,997.15
2018-09-15T05:13:42.750Z,997.18
2018-09-15T05:14:42.746Z,997.17
2018-09-15T05:15:42.835Z,997.22
2018-09-15T05:16:42.748Z,997.22
2018-09-15T05:17:42.752Z,997.21
2018-09-15T05:18:42.746Z,997.21
2018-09-15T05:19:42.746Z,997.23
2018-09-15T05:20:42.781Z,997.26
2018-09-15T05:21:42.743Z,997.26
2018-09-15T05:22:42.744Z,997.25
2018-09-15T05:23:42.744Z,997.32
2018-09-15T05:24:42.742Z,997.31
2018-09-15T05:25:42.739Z,997.33
2018-09-15T05:26:42.742Z,997.34
2018-09-15T05:27:42.742Z,997.33
2018-09-15T05:28:42.737Z,997.3
2018-09-15T05:29:42.738Z,997.27
2018-09-15T05:30:42.769Z,997.3
2018-09-15T05:31:42.871Z,997.31
2018-09-15T05:32:42.735Z,997.3
2018-09-15T05:33:42.737Z,997.26
2018-09-15T05:34:42.735Z,997.31
2018-09-15T05:35:42.734Z,997.32
2018-09-15T05:36:42.737Z,997.27
2018-09-15T05:37:42.732Z,997.29
2018-09-15T05:38:42.732Z,997.28
2018-09-15T05:39:42.735Z,997.29
2018-09-15T05:40:42.733Z,997.29
2018-09-15T05:41:42.735Z,997.3
2018-09-15T05:42:42.733Z,997.34
2018-09-15T05:43:42.730Z,997.36
2018-09-15T05:44:42.730Z,997.36
2018-09-15T05:45:42.825Z,997.36
2018-09-15T05:46:42.727Z,997.35
2018-09-15T05:47:42.730Z,997.38
2018-09-15T05:48:42.733Z,997.4
2018-09-15T05:49:42.819Z,997.39
2018-09-15T05:50:42.747Z,997.43
2018-09-15T05:51:42.728Z,997.43
2018-09-15T05:52:42.735Z,997.44
2018-09-15T05:53:42.737Z,997.45
2018-09-15T05:54:42.730Z,997.47
2018-09-15T05:55:42.733Z,997.47
2018-09-15T05:56:42.736Z,997.53
2018-09-15T05:57:42.731Z,997.5
2018-09-15T05:58:42.732Z,997.52
2018-09-15T05:59:42.730Z,997.51
2018-09-15T06:00:42.730Z,997.48
2018-09-15T06:01:42.750Z,997.51
2018-09-15T06:02:42.738Z,997.49
2018-09-15T06:03:42.737Z,997.53
2018-09-15T06:04:42.738Z,997.48
2018-09-15T06:05:42.789Z,997.5
2018-09-15T06:06:42.843Z,997.49
2018-09-15T06:07:42.823Z,997.51
2018-09-15T06:08:42.735Z,997.51
2018-09-15T06:09:42.720Z,997.56
2018-09-15T06:10:42.720Z,997.55
2018-09-15T06:11:42.740Z,997.53
2018-09-15T06:12:42.721Z,997.54
2018-09-15T06:13:42.781Z,997.57
2018-09-15T06:14:42.720Z,997.52
2018-09-15T06:15:42.846Z,997.54
2018-09-15T06:16:42.719Z,997.54
2018-09-15T06:17:42.721Z,997.56
2018-09-15T06:18:42.720Z,997.55
2018-09-15T06:19:42.723Z,997.58
2018-09-15T06:20:42.777Z,997.57
2018-09-15T06:21:42.721Z,997.63
2018-09-15T06:22:42.721Z,997.63
2018-09-15T06:23:42.721Z,997.62
2018-09-15T06:24:42.731Z,997.64
2018-09-15T06:25:42.768Z,997.65
2018-09-15T06:26:42.730Z,997.69
2018-09-15T06:27:42.724Z,997.69
2018-09-15T06:28:42.724Z,997.73
2018-09-15T06:29:42.723Z,997.71
2018-09-15T06:30:42.799Z,997.79
2018-09-15T06:31:42.723Z,997.75
2018-09-15T06:32:42.725Z,997.8
2018-09-15T06:33:42.724Z,997.75
2018-09-15T06:34:42.728Z,997.85
2018-09-15T06:35:42.727Z,997.79
2018-09-15T06:36:42.725Z,997.81
2018-09-15T06:37:42.725Z,997.78
2018-09-15T06:38:42.728Z,997.79
2018-09-15T06:39:42.736Z,997.87
2018-09-15T06:40:42.799Z,997.8
2018-09-15T06:41:42.732Z,997.9
2018-09-15T06:42:42.728Z,997.87
2018-09-15T06:43:42.731Z,997.94
2018-09-15T06:44:42.728Z,997.9
2018-09-15T06:45:42.854Z,997.9
2018-09-15T06:46:42.732Z,997.92
2018-09-15T06:47:42.732Z,997.92
2018-09-15T06:48:42.736Z,997.94
2018-09-15T06:49:42.734Z,997.92
2018-09-15T06:50:42.735Z,997.93
2018-09-15T06:51:42.740Z,997.98
2018-09-15T06:52:42.742Z,997.92
2018-09-15T06:53:42.827Z,997.98
2018-09-15T06:54:42.757Z,997.96
2018-09-15T06:55:42.757Z,998
2018-09-15T06:56:42.762Z,998.04
2018-09-15T06:57:42.765Z,998.08
2018-09-15T06:58:42.757Z,998.14
2018-09-15T06:59:42.767Z,998.18
2018-09-15T07:00:42.779Z,998.15
2018-09-15T07:01:42.763Z,998.17
2018-09-15T07:02:42.764Z,998.21
2018-09-15T07:03:42.766Z,998.23
2018-09-15T07:04:42.770Z,998.23
2018-09-15T07:05:42.865Z,998.22
2018-09-15T07:06:42.774Z,998.23
2018-09-15T07:07:42.778Z,998.26
2018-09-15T07:08:42.777Z,998.29
2018-09-15T07:09:42.782Z,998.3
2018-09-15T07:10:42.793Z,998.34
2018-09-15T07:11:42.788Z,998.32
2018-09-15T07:12:42.791Z,998.38
2018-09-15T07:13:42.792Z,998.32
2018-09-15T07:14:42.808Z,998.35
2018-09-15T07:15:42.801Z,998.36
2018-09-15T07:16:42.805Z,998.35
2018-09-15T07:17:42.809Z,998.39
2018-09-15T07:18:42.813Z,998.42
2018-09-15T07:19:42.830Z,998.41
2018-09-15T07:20:42.826Z,998.46
2018-09-15T07:21:42.832Z,998.48
2018-09-15T07:22:42.832Z,998.52
2018-09-15T07:23:42.834Z,998.5
2018-09-15T07:24:42.844Z,998.43
2018-09-15T07:25:42.878Z,998.48
2018-09-15T07:26:42.849Z,998.47
2018-09-15T07:27:42.861Z,998.45
2018-09-15T07:28:42.862Z,998.52
2018-09-15T07:29:42.876Z,998.53
2018-09-15T07:30:42.967Z,998.46
2018-09-15T07:31:42.968Z,998.47
2018-09-15T07:32:42.881Z,998.47
2018-09-15T07:33:42.891Z,998.44
2018-09-15T07:34:42.922Z,998.49
2018-09-15T07:35:42.925Z,998.5
2018-09-15T07:36:42.905Z,998.53
2018-09-15T07:37:42.926Z,998.48
2018-09-15T07:38:42.914Z,998.51
2018-09-15T07:39:42.922Z,998.47
2018-09-15T07:40:42.979Z,998.48
2018-09-15T07:41:42.942Z,998.49
2018-09-15T07:42:42.943Z,998.52
2018-09-15T07:43:42.948Z,998.51
2018-09-15T07:44:43.017Z,998.51
2018-09-15T07:45:42.956Z,998.5
2018-09-15T07:46:42.963Z,998.51
2018-09-15T07:47:42.970Z,998.49
2018-09-15T07:48:42.976Z,998.52
2018-09-15T07:49:42.990Z,998.52
2018-09-15T07:50:43.005Z,998.47
2018-09-15T07:51:43.136Z,998.48
2018-09-15T07:52:43.007Z,998.48
2018-09-15T07:53:43.011Z,998.48
2018-09-15T07:54:43.008Z,998.49
2018-09-15T07:55:43.072Z,998.51
2018-09-15T07:56:43.023Z,998.5
2018-09-15T07:57:43.114Z,998.45
2018-09-15T07:58:43.032Z,998.46
2018-09-15T07:59:43.037Z,998.45
2018-09-15T08:00:43.082Z,998.46
2018-09-15T08:01:43.048Z,998.44
2018-09-15T08:02:43.056Z,998.5
2018-09-15T08:03:43.059Z,998.49
2018-09-15T08:04:43.063Z,998.49
2018-09-15T08:05:43.149Z,998.48
2018-09-15T08:06:43.078Z,998.47
2018-09-15T08:07:43.084Z,998.45
2018-09-15T08:08:43.089Z,998.45
2018-09-15T08:09:43.095Z,998.42
2018-09-15T08:10:43.177Z,998.44
2018-09-15T08:11:43.106Z,998.45
2018-09-15T08:12:43.118Z,998.4
2018-09-15T08:13:43.123Z,998.45
2018-09-15T08:14:43.124Z,998.44
2018-09-15T08:15:43.169Z,998.44
2018-09-15T08:16:43.137Z,998.47
2018-09-15T08:17:43.144Z,998.44
2018-09-15T08:18:43.152Z,998.47
2018-09-15T08:19:43.159Z,998.51
2018-09-15T08:20:43.270Z,998.48
2018-09-15T08:21:43.168Z,998.47
2018-09-15T08:22:43.178Z,998.43
2018-09-15T08:23:43.191Z,998.48
2018-09-15T08:24:43.188Z,998.44
2018-09-15T08:25:43.208Z,998.48
2018-09-15T08:26:43.202Z,998.47
2018-09-15T08:27:43.226Z,998.45
2018-09-15T08:28:43.211Z,998.46
2018-09-15T08:29:43.219Z,998.51
2018-09-15T08:30:43.224Z,998.53
2018-09-15T08:31:43.229Z,998.44
2018-09-15T08:32:43.236Z,998.49
2018-09-15T08:33:43.241Z,998.5
2018-09-15T08:34:43.241Z,998.51
2018-09-15T08:35:43.245Z,998.47
2018-09-15T08:36:43.255Z,998.48
2018-09-15T08:37:43.281Z,998.49
2018-09-15T08:38:44.062Z,998.47
2018-09-15T08:39:43.267Z,998.5
2018-09-15T08:40:43.322Z,998.49
2018-09-15T08:41:43.280Z,998.48
2018-09-15T08:42:43.278Z,998.44
2018-09-15T08:43:43.279Z,998.51
2018-09-15T08:44:43.283Z,998.49
2018-09-15T08:45:43.293Z,998.5
2018-09-15T08:46:43.290Z,998.51
2018-09-15T08:47:43.300Z,998.51
2018-09-15T08:48:43.301Z,998.51
2018-09-15T08:49:43.301Z,998.51
2018-09-15T08:50:43.356Z,998.56
2018-09-15T08:51:43.315Z,998.55
2018-09-15T08:52:43.309Z,998.57
2018-09-15T08:53:43.321Z,998.56
2018-09-15T08:54:43.314Z,998.58
2018-09-15T08:55:43.338Z,998.61
2018-09-15T08:56:43.330Z,998.6
2018-09-15T08:57:43.323Z,998.59
2018-09-15T08:58:43.327Z,998.6
2018-09-15T08:59:43.329Z,998.59
2018-09-15T09:00:43.359Z,998.65
2018-09-15T09:01:43.337Z,998.63
2018-09-15T09:02:43.338Z,998.65
2018-09-15T09:03:43.371Z,998.64
2018-09-15T09:04:43.342Z,998.72
2018-09-15T09:05:43.411Z,998.7
2018-09-15T09:06:43.351Z,998.7
2018-09-15T09:07:43.360Z,998.7
2018-09-15T09:08:43.355Z,998.69
2018-09-15T09:09:43.358Z,998.71
2018-09-15T09:10:43.358Z,998.69
2018-09-15T09:11:43.362Z,998.72
2018-09-15T09:12:43.363Z,998.73
2018-09-15T09:13:43.364Z,998.75
2018-09-15T09:14:43.377Z,998.75
2018-09-15T09:15:43.414Z,998.73
2018-09-15T09:16:43.371Z,998.75
2018-09-15T09:17:43.376Z,998.76
2018-09-15T09:18:43.377Z,998.74
2018-09-15T09:19:43.384Z,998.7
2018-09-15T09:20:43.464Z,998.7
2018-09-15T09:21:43.384Z,998.74
2018-09-15T09:22:43.385Z,998.77
2018-09-15T09:23:43.391Z,998.77
2018-09-15T09:24:43.392Z,998.79
2018-09-15T09:25:43.410Z,998.81
2018-09-15T09:26:43.468Z,998.85
2018-09-15T09:27:43.398Z,998.86
2018-09-15T09:28:43.403Z,998.86
2018-09-15T09:29:43.405Z,998.85
2018-09-15T09:30:43.414Z,998.88
2018-09-15T09:31:43.414Z,998.82
2018-09-15T09:32:43.415Z,998.85
2018-09-15T09:33:43.412Z,998.79
2018-09-15T09:34:43.416Z,998.75
2018-09-15T09:35:43.422Z,998.74
2018-09-15T09:36:43.422Z,998.71
2018-09-15T09:37:43.420Z,998.72
2018-09-15T09:38:43.424Z,998.74
2018-09-15T09:39:43.425Z,998.72
2018-09-15T09:40:43.427Z,998.78
2018-09-15T09:41:43.433Z,998.81
2018-09-15T09:42:43.430Z,998.79
2018-09-15T09:43:43.434Z,998.77
2018-09-15T09:44:43.437Z,998.77
2018-09-15T09:45:43.468Z,998.8
2018-09-15T09:46:43.440Z,998.78
2018-09-15T09:47:43.472Z,998.83
2018-09-15T09:48:43.443Z,998.79
2018-09-15T09:49:43.458Z,998.85
2018-09-15T09:50:43.461Z,998.8
2018-09-15T09:51:43.453Z,998.79
2018-09-15T09:52:43.453Z,998.75
2018-09-15T09:53:43.459Z,998.76
2018-09-15T09:54:43.460Z,998.78
2018-09-15T09:55:43.484Z,998.71
2018-09-15T09:56:43.463Z,998.77
2018-09-15T09:57:43.468Z,998.76
2018-09-15T09:58:43.470Z,998.79
2018-09-15T09:59:43.476Z,998.79
2018-09-15T10:00:43.477Z,998.72
2018-09-15T10:01:43.477Z,998.77
2018-09-15T10:02:43.479Z,998.75
2018-09-15T10:03:43.483Z,998.72
2018-09-15T10:04:43.489Z,998.76
2018-09-15T10:05:43.553Z,998.74
2018-09-15T10:06:43.495Z,998.71
2018-09-15T10:07:43.493Z,998.65
2018-09-15T10:08:43.495Z,998.6
2018-09-15T10:09:43.501Z,998.59
2018-09-15T10:10:43.567Z,998.62
2018-09-15T10:11:43.506Z,998.61
2018-09-15T10:12:43.507Z,998.59
2018-09-15T10:13:43.513Z,998.58
2018-09-15T10:14:43.512Z,998.61
2018-09-15T10:15:43.594Z,998.59
2018-09-15T10:16:43.517Z,998.61
2018-09-15T10:17:43.520Z,998.61
2018-09-15T10:18:43.522Z,998.62
2018-09-15T10:19:43.523Z,998.62
2018-09-15T10:20:43.622Z,998.61
2018-09-15T10:21:43.582Z,998.59
2018-09-15T10:22:43.533Z,998.65
2018-09-15T10:23:43.538Z,998.57
2018-09-15T10:24:43.539Z,998.56
2018-09-15T10:25:43.610Z,998.52
2018-09-15T10:26:43.545Z,998.53
2018-09-15T10:27:43.544Z,998.51
2018-09-15T10:28:43.547Z,998.56
2018-09-15T10:29:43.601Z,998.42
2018-09-15T10:30:43.557Z,998.5
2018-09-15T10:31:43.555Z,998.46
2018-09-15T10:32:43.558Z,998.5
2018-09-15T10:33:43.564Z,998.57
2018-09-15T10:34:43.567Z,998.57
2018-09-15T10:35:43.567Z,998.54
2018-09-15T10:36:43.567Z,998.57
2018-09-15T10:37:43.579Z,998.55
2018-09-15T10:38:43.573Z,998.53
2018-09-15T10:39:43.574Z,998.5
2018-09-15T10:40:43.640Z,998.48
2018-09-15T10:41:43.587Z,998.41
2018-09-15T10:42:43.584Z,998.54
2018-09-15T10:43:43.581Z,998.57
2018-09-15T10:44:43.584Z,998.56
2018-09-15T10:45:43.637Z,998.54
2018-09-15T10:46:43.653Z,998.56
2018-09-15T10:47:43.594Z,998.58
2018-09-15T10:48:43.598Z,998.53
2018-09-15T10:49:43.600Z,998.52
2018-09-15T10:50:43.658Z,998.53
2018-09-15T10:51:43.602Z,998.5
2018-09-15T10:52:43.607Z,998.48
2018-09-15T10:53:43.608Z,998.51
2018-09-15T10:54:43.624Z,998.52
2018-09-15T10:55:43.621Z,998.46
2018-09-15T10:56:43.616Z,998.5
2018-09-15T10:57:43.628Z,998.46
2018-09-15T10:58:43.620Z,998.56
2018-09-15T10:59:43.635Z,998.65
2018-09-15T11:00:43.684Z,998.61
2018-09-15T11:01:43.628Z,998.63
2018-09-15T11:02:43.634Z,998.58
2018-09-15T11:03:43.637Z,998.57
2018-09-15T11:04:43.641Z,998.59
2018-09-15T11:05:43.666Z,998.6
2018-09-15T11:06:43.642Z,998.61
2018-09-15T11:07:43.646Z,998.6
2018-09-15T11:08:43.653Z,998.62
2018-09-15T11:09:43.650Z,998.63
2018-09-15T11:10:43.704Z,998.68
2018-09-15T11:11:43.657Z,998.6
2018-09-15T11:12:43.660Z,998.59
2018-09-15T11:13:43.700Z,998.57
2018-09-15T11:14:43.665Z,998.57
2018-09-15T11:15:43.757Z,998.54
2018-09-15T11:16:43.671Z,998.61
2018-09-15T11:17:43.677Z,998.57
2018-09-15T11:18:43.686Z,998.57
2018-09-15T11:19:43.677Z,998.54
2018-09-15T11:20:43.678Z,998.55
2018-09-15T11:21:43.680Z,998.61
2018-09-15T11:22:43.770Z,998.63
2018-09-15T11:23:43.686Z,998.65
2018-09-15T11:24:43.694Z,998.62
2018-09-15T11:25:43.692Z,998.61
2018-09-15T11:26:43.694Z,998.58
2018-09-15T11:27:43.703Z,998.64
2018-09-15T11:28:43.779Z,998.6
2018-09-15T11:29:43.715Z,998.64
2018-09-15T11:30:43.796Z,998.59
2018-09-15T11:31:43.707Z,998.62
2018-09-15T11:32:43.736Z,998.6
2018-09-15T11:33:43.712Z,998.63
2018-09-15T11:34:43.712Z,998.58
2018-09-15T11:35:43.716Z,998.55
2018-09-15T11:36:43.722Z,998.57
2018-09-15T11:37:43.716Z,998.59
2018-09-15T11:38:43.723Z,998.62
2018-09-15T11:39:43.725Z,998.57
2018-09-15T11:40:43.725Z,998.69
2018-09-15T11:41:43.730Z,998.63
2018-09-15T11:42:43.730Z,998.59
2018-09-15T11:43:43.784Z,998.65
2018-09-15T11:44:43.735Z,998.62
2018-09-15T11:45:43.761Z,998.63
2018-09-15T11:46:43.741Z,998.57
2018-09-15T11:47:43.769Z,998.52
2018-09-15T11:48:43.747Z,998.55
2018-09-15T11:49:43.749Z,998.5
2018-09-15T11:50:43.812Z,998.47
2018-09-15T11:51:43.758Z,998.44
2018-09-15T11:52:43.757Z,998.42
2018-09-15T11:53:43.825Z,998.32
2018-09-15T11:54:43.762Z,998.39
2018-09-15T11:55:43.768Z,998.34
2018-09-15T11:56:43.768Z,998.3
2018-09-15T11:57:43.771Z,998.35
2018-09-15T11:58:43.785Z,998.39
2018-09-15T11:59:43.779Z,998.42
2018-09-15T12:00:43.828Z,998.45
2018-09-15T12:01:43.788Z,998.38
2018-09-15T12:02:43.789Z,998.41
2018-09-15T12:03:43.789Z,998.44
2018-09-15T12:04:43.793Z,998.36
2018-09-15T12:05:43.868Z,998.39
2018-09-15T12:06:43.799Z,998.41
2018-09-15T12:07:43.866Z,998.4
2018-09-15T12:08:43.799Z,998.45
2018-09-15T12:09:43.810Z,998.46
2018-09-15T12:10:43.814Z,998.44
2018-09-15T12:11:43.809Z,998.43
2018-09-15T12:12:43.820Z,998.41
2018-09-15T12:13:43.818Z,998.44
2018-09-15T12:14:43.817Z,998.44
2018-09-15T12:15:43.820Z,998.42
2018-09-15T12:16:43.824Z,998.42
2018-09-15T12:17:43.824Z,998.41
2018-09-15T12:18:43.829Z,998.36
2018-09-15T12:19:43.830Z,998.37
2018-09-15T12:20:43.859Z,998.34
2018-09-15T12:21:43.905Z,998.26
2018-09-15T12:22:43.839Z,998.24
2018-09-15T12:23:43.849Z,998.27
2018-09-15T12:24:43.844Z,998.28
2018-09-15T12:25:43.886Z,998.25
2018-09-15T12:26:43.848Z,998.3
2018-09-15T12:27:43.910Z,998.25
2018-09-15T12:28:43.853Z,998.27
2018-09-15T12:29:43.893Z,998.22
2018-09-15T12:30:43.911Z,998.25
2018-09-15T12:31:43.862Z,998.25